Main page
METAR-TAF:

METAR-TAF

Airports :

Tan Son Nhat International Airport

Ho Chi Minh City, Vietnam

latitude: 10-49N, longitude: 106-40E, elevation: 19 m

Current weather observation

The report was made 29 minutes ago, at 13:00 UTC
Wind 8 kt from the South/Southeast, varying between Southeast and South/Southwest
Temperature 30°C
Humidity 79%
Pressure 1006 hPa
Visibility 10 km or more
Scattered clouds at a height of 1700 ft

METAR: VVTS 201300Z 16008KT 130V200 9999 SCT017 30/26 Q1006 NOSIG

Time: 20:29 (13:29 UTC)

Forecast

The report was made 2 hours and 29 minutes ago, at 11:00 UTC
Forecast valid from 20 at 12 UTC to 21 at 18 UTC
Wind 8 kt from the South
Visibility 10 km or more
Scattered clouds at a height of 1700 ft

TAF: VVTS 201100Z 2012/2118 17008KT 9999 SCT017

Weather observations and forecasts of more than 4000 airports (METAR and TAF reports).

The available stations are represented by yellow and red dots on the map.

Hover mouse over dot to see the name of the station.

Then click to see weather observations and forecasts.

To change the map : click on the green buttons with a black cross to zoom in, on the green button with a dash to zoom out, or on the green arrows for adjacent maps.


METAR-TAF: